Terminal Aerodrome Forecast
Issued by NWS

Home | Current Version | Previous Version | Graphics & Text | Print | Product List | Glossary On
Versions: 1 2 3 4 5 6 7 8 9 10 11 12 13 14 15 16 17 18 19 20 21 22 23 24 25 26 27 28 29 30 31 32 33
000
FTUS43 KLOT 301502 AAC
TAFMDW
TAF AMD
KMDW 301502Z 3015/0112 04013G20KT 6SM -DZ BR VCSH SCT007 OVC009
      TEMPO 3015/3017 4SM -SHRADZ BR
     FM301700 05014G22KT P6SM VCSH SCT008 OVC012
     FM302200 04014G21KT 6SM -SHRA SCT010 OVC018
     FM010100 02009KT 3SM -SHRA BKN008 OVC012
     FM010600 03009KT 5SM BR SCT007 BKN012=

USA.gov is the U.S. government's official web portal to all federal, state and local government web resources and services.